sensor_id;sensor_type;location;lat;lon;timestamp;temperature;humidity
19224;DHT22;9746;47.180;9.776;2024-03-23T16:13:24;9.10;99.90
19224;DHT22;9746;47.180;9.776;2024-03-23T16:15:55;9.20;99.90
19224;DHT22;9746;47.180;9.776;2024-03-23T16:18:23;9.30;99.90
19224;DHT22;9746;47.180;9.776;2024-03-23T16:20:54;9.20;99.90
19224;DHT22;9746;47.180;9.776;2024-03-23T16:23:23;9.00;99.90
19224;DHT22;9746;47.180;9.776;2024-03-23T16:25:51;8.90;99.90
19224;DHT22;9746;47.180;9.776;2024-03-23T16:28:40;8.70;99.90
19224;DHT22;9746;47.180;9.776;2024-03-23T16:31:09;8.40;99.90
19224;DHT22;9746;47.180;9.776;2024-03-23T16:33:37;8.10;99.90
19224;DHT22;9746;47.180;9.776;2024-03-23T16:36:06;8.00;99.90
19224;DHT22;9746;47.180;9.776;2024-03-23T16:39:03;8.00;99.90
19224;DHT22;9746;47.180;9.776;2024-03-23T16:41:40;7.80;99.90
19224;DHT22;9746;47.180;9.776;2024-03-23T16:44:08;7.70;99.90
19224;DHT22;9746;47.180;9.776;2024-03-23T16:46:36;7.60;99.90
19224;DHT22;9746;47.180;9.776;2024-03-23T16:49:03;7.60;99.90
19224;DHT22;9746;47.180;9.776;2024-03-23T16:51:30;7.60;99.90
19224;DHT22;9746;47.180;9.776;2024-03-23T16:53:56;7.60;99.90
19224;DHT22;9746;47.180;9.776;2024-03-23T16:56:25;7.60;99.90
19224;DHT22;9746;47.180;9.776;2024-03-23T16:58:52;7.60;99.90
19224;DHT22;9746;47.180;9.776;2024-03-23T17:01:21;7.50;99.90
19224;DHT22;9746;47.180;9.776;2024-03-23T17:03:52;7.40;99.90
19224;DHT22;9746;47.180;9.776;2024-03-23T17:06:19;7.40;99.90
19224;DHT22;9746;47.180;9.776;2024-03-23T17:08:56;7.30;99.90
19224;DHT22;9746;47.180;9.776;2024-03-23T17:11:24;7.30;99.90
19224;DHT22;9746;47.180;9.776;2024-03-23T17:13:51;7.30;99.90
19224;DHT22;9746;47.180;9.776;2024-03-23T17:16:21;7.30;99.90
19224;DHT22;9746;47.180;9.776;2024-03-23T17:19:08;7.20;99.90
19224;DHT22;9746;47.180;9.776;2024-03-23T17:21:35;7.20;99.90
19224;DHT22;9746;47.180;9.776;2024-03-23T17:24:09;7.30;99.90
19224;DHT22;9746;47.180;9.776;2024-03-23T17:26:36;7.30;99.90
19224;DHT22;9746;47.180;9.776;2024-03-23T17:29:08;7.30;99.90
19224;DHT22;9746;47.180;9.776;2024-03-23T17:31:37;7.40;99.90
19224;DHT22;9746;47.180;9.776;2024-03-23T17:34:12;7.40;99.90
19224;DHT22;9746;47.180;9.776;2024-03-23T17:36:40;7.40;99.90
19224;DHT22;9746;47.180;9.776;2024-03-23T17:39:13;7.40;99.90
19224;DHT22;9746;47.180;9.776;2024-03-23T17:41:41;7.50;99.90
19224;DHT22;9746;47.180;9.776;2024-03-23T17:44:08;7.50;99.90
19224;DHT22;9746;47.180;9.776;2024-03-23T17:46:37;7.40;99.90
19224;DHT22;9746;47.180;9.776;2024-03-23T17:49:23;7.40;99.90
19224;DHT22;9746;47.180;9.776;2024-03-23T17:51:50;7.40;99.90
19224;DHT22;9746;47.180;9.776;2024-03-23T17:54:17;7.40;99.90
19224;DHT22;9746;47.180;9.776;2024-03-23T17:56:45;7.40;99.90
19224;DHT22;9746;47.180;9.776;2024-03-23T17:59:12;7.40;99.90
19224;DHT22;9746;47.180;9.776;2024-03-23T18:01:40;7.30;99.90
19224;DHT22;9746;47.180;9.776;2024-03-23T18:04:08;7.20;99.90
19224;DHT22;9746;47.180;9.776;2024-03-23T18:06:35;7.20;99.90
19224;DHT22;9746;47.180;9.776;2024-03-23T18:09:04;7.20;99.90
19224;DHT22;9746;47.180;9.776;2024-03-23T18:11:31;7.00;99.90
19224;DHT22;9746;47.180;9.776;2024-03-23T18:14:00;7.00;99.90
19224;DHT22;9746;47.180;9.776;2024-03-23T18:16:27;7.00;99.90
19224;DHT22;9746;47.180;9.776;2024-03-23T18:18:58;7.00;99.90
19224;DHT22;9746;47.180;9.776;2024-03-23T18:21:25;7.00;99.90
19224;DHT22;9746;47.180;9.776;2024-03-23T18:24:05;6.90;99.90
19224;DHT22;9746;47.180;9.776;2024-03-23T18:26:33;6.90;99.90
19224;DHT22;9746;47.180;9.776;2024-03-23T18:28:59;6.90;99.90
19224;DHT22;9746;47.180;9.776;2024-03-23T18:31:26;6.90;99.90
19224;DHT22;9746;47.180;9.776;2024-03-23T18:33:54;6.80;99.90
19224;DHT22;9746;47.180;9.776;2024-03-23T18:36:24;6.80;99.90
19224;DHT22;9746;47.180;9.776;2024-03-23T18:38:51;6.80;99.90
19224;DHT22;9746;47.180;9.776;2024-03-23T18:41:19;6.70;99.90
19224;DHT22;9746;47.180;9.776;2024-03-23T18:43:52;6.70;99.90
19224;DHT22;9746;47.180;9.776;2024-03-23T18:46:20;6.70;99.90
19224;DHT22;9746;47.180;9.776;2024-03-23T18:49:02;6.70;99.90
19224;DHT22;9746;47.180;9.776;2024-03-23T18:51:31;6.60;99.90
19224;DHT22;9746;47.180;9.776;2024-03-23T18:54:15;6.60;99.90
19224;DHT22;9746;47.180;9.776;2024-03-23T18:56:43;6.50;99.90
19224;DHT22;9746;47.180;9.776;2024-03-23T18:59:27;6.50;99.90
19224;DHT22;9746;47.180;9.776;2024-03-23T19:01:54;6.50;99.90
19224;DHT22;9746;47.180;9.776;2024-03-23T19:07:57;6.50;99.90
19224;DHT22;9746;47.180;9.776;2024-03-23T19:10:24;6.50;99.90
19224;DHT22;9746;47.180;9.776;2024-03-23T19:13:14;6.50;99.90
19224;DHT22;9746;47.180;9.776;2024-03-23T19:15:41;6.50;99.90
19224;DHT22;9746;47.180;9.776;2024-03-23T19:18:37;6.40;99.90
19224;DHT22;9746;47.180;9.776;2024-03-23T19:21:03;6.40;99.90
19224;DHT22;9746;47.180;9.776;2024-03-23T19:23:32;6.40;99.90
19224;DHT22;9746;47.180;9.776;2024-03-23T19:26:00;6.40;99.90
19224;DHT22;9746;47.180;9.776;2024-03-23T19:28:33;6.40;99.90
19224;DHT22;9746;47.180;9.776;2024-03-23T19:31:02;6.30;99.90
19224;DHT22;9746;47.180;9.776;2024-03-23T19:33:51;6.30;99.90
19224;DHT22;9746;47.180;9.776;2024-03-23T19:36:17;6.30;99.90
19224;DHT22;9746;47.180;9.776;2024-03-23T19:38:56;6.30;99.90
19224;DHT22;9746;47.180;9.776;2024-03-23T19:41:23;6.30;99.90
19224;DHT22;9746;47.180;9.776;2024-03-23T19:44:10;6.30;99.90
19224;DHT22;9746;47.180;9.776;2024-03-23T19:46:36;6.40;99.90
19224;DHT22;9746;47.180;9.776;2024-03-23T19:49:15;6.40;99.90
19224;DHT22;9746;47.180;9.776;2024-03-23T19:51:41;6.40;99.90
19224;DHT22;9746;47.180;9.776;2024-03-23T19:54:16;6.40;99.90
19224;DHT22;9746;47.180;9.776;2024-03-23T19:56:42;6.30;99.90
19224;DHT22;9746;47.180;9.776;2024-03-23T19:59:16;6.30;99.90
19224;DHT22;9746;47.180;9.776;2024-03-23T20:01:42;6.30;99.90
19224;DHT22;9746;47.180;9.776;2024-03-23T20:04:09;6.30;99.90
19224;DHT22;9746;47.180;9.776;2024-03-23T20:06:36;6.30;99.90
19224;DHT22;9746;47.180;9.776;2024-03-23T20:09:26;6.20;99.90
19224;DHT22;9746;47.180;9.776;2024-03-23T20:11:55;6.10;99.90
19224;DHT22;9746;47.180;9.776;2024-03-23T20:14:25;5.80;99.90
19224;DHT22;9746;47.180;9.776;2024-03-23T20:16:51;5.70;99.90
19224;DHT22;9746;47.180;9.776;2024-03-23T20:19:32;5.50;99.90
19224;DHT22;9746;47.180;9.776;2024-03-23T20:21:59;5.40;99.90
19224;DHT22;9746;47.180;9.776;2024-03-23T20:25:02;5.40;99.90
19224;DHT22;9746;47.180;9.776;2024-03-23T20:27:28;5.20;99.90
19224;DHT22;9746;47.180;9.776;2024-03-23T20:29:58;5.20;99.90
19224;DHT22;9746;47.180;9.776;2024-03-23T20:32:24;5.10;99.90
19224;DHT22;9746;47.180;9.776;2024-03-23T20:37:46;5.20;99.90
19224;DHT22;9746;47.180;9.776;2024-03-23T20:40:17;5.20;99.90
19224;DHT22;9746;47.180;9.776;2024-03-23T20:42:44;5.10;99.90
19224;DHT22;9746;47.180;9.776;2024-03-23T20:45:17;5.10;99.90
19224;DHT22;9746;47.180;9.776;2024-03-23T20:47:45;5.00;99.90
19224;DHT22;9746;47.180;9.776;2024-03-23T20:50:23;5.00;99.90
19224;DHT22;9746;47.180;9.776;2024-03-23T20:52:53;4.90;99.90
19224;DHT22;9746;47.180;9.776;2024-03-23T20:55:29;4.90;99.90
19224;DHT22;9746;47.180;9.776;2024-03-23T20:57:58;4.80;99.90
19224;DHT22;9746;47.180;9.776;2024-03-23T21:00:36;4.70;99.90
19224;DHT22;9746;47.180;9.776;2024-03-23T21:03:06;4.70;99.90
19224;DHT22;9746;47.180;9.776;2024-03-23T21:05:37;4.60;99.90
19224;DHT22;9746;47.180;9.776;2024-03-23T21:08:05;4.60;99.90
19224;DHT22;9746;47.180;9.776;2024-03-23T21:10:48;4.70;99.90
19224;DHT22;9746;47.180;9.776;2024-03-23T21:13:46;4.60;99.90
19224;DHT22;9746;47.180;9.776;2024-03-23T21:16:16;4.60;99.90
19224;DHT22;9746;47.180;9.776;2024-03-23T21:22:06;4.60;99.90
19224;DHT22;9746;47.180;9.776;2024-03-23T21:24:36;4.70;99.90
19224;DHT22;9746;47.180;9.776;2024-03-23T21:27:04;4.80;99.90
19224;DHT22;9746;47.180;9.776;2024-03-23T21:29:51;4.80;99.90
19224;DHT22;9746;47.180;9.776;2024-03-23T21:32:18;4.80;99.90
19224;DHT22;9746;47.180;9.776;2024-03-23T21:34:47;4.80;99.90
19224;DHT22;9746;47.180;9.776;2024-03-23T21:37:14;4.80;99.90
